Time;durP1;ratioP1;P1;durP2;ratioP2;P2;SDS_P1;SDS_P2;PMS_P1;PMS_P2;Temp;Humidity;BMP_temperature;BMP_pressure;BME280_temperature;BME280_humidity;BME280_pressure;Samples;Min_cycle;Max_cycle;Signal;HPM_P1;HPM_P2
2023/10/04 00:01:15;;;;;;;385.90;268.00;;;;;22.70;97342.00;;;;5086895;28;20248;-88
2023/10/04 00:04:04;;;;;;;385.80;259.73;;;;;22.90;97351.00;;;;5080951;28;20235;-89
2023/10/04 00:06:56;;;;;;;389.70;268.67;;;;;22.90;97343.00;;;;5081571;28;20196;-84
2023/10/04 00:09:45;;;;;;;383.23;270.23;;;;;22.90;97346.00;;;;5082863;28;20219;-85
2023/10/04 00:12:34;;;;;;;389.77;265.93;;;;;22.50;97340.00;;;;5081195;28;20581;-85
2023/10/04 00:15:25;;;;;;;380.43;267.13;;;;;22.80;97341.00;;;;5085596;28;20206;-85
2023/10/04 00:18:15;;;;;;;374.60;248.83;;;;;22.80;97352.00;;;;5079066;28;20204;-84
2023/10/04 00:21:06;;;;;;;385.27;269.90;;;;;22.70;97332.00;;;;5078367;28;20269;-87
2023/10/04 00:23:58;;;;;;;376.13;255.97;;;;;22.50;97338.00;;;;5083174;28;20711;-87
2023/10/04 00:26:48;;;;;;;379.80;260.03;;;;;22.90;97348.00;;;;5080038;28;20623;-88
2023/10/04 00:29:37;;;;;;;381.30;259.30;;;;;22.70;97348.00;;;;5077165;28;20204;-89
2023/10/04 00:32:27;;;;;;;377.97;264.27;;;;;22.80;97368.00;;;;5090366;28;20211;-87
2023/10/04 00:35:17;;;;;;;381.70;261.87;;;;;22.90;97349.00;;;;5081417;28;20225;-85
2023/10/04 00:38:12;;;;;;;387.90;274.20;;;;;22.80;97351.00;;;;5086858;28;20626;-85
2023/10/04 00:41:07;;;;;;;374.90;248.73;;;;;22.70;97373.00;;;;5084003;28;20294;-86
2023/10/04 00:43:58;;;;;;;387.97;273.53;;;;;23.10;97389.00;;;;5083664;28;20224;-87
2023/10/04 00:46:48;;;;;;;380.80;260.57;;;;;23.00;97379.00;;;;5084381;28;20673;-87
2023/10/04 00:49:45;;;;;;;393.27;273.43;;;;;23.10;97392.00;;;;5090605;28;20204;-85
2023/10/04 00:52:34;;;;;;;387.13;265.60;;;;;23.10;97385.00;;;;5085546;28;20569;-84
2023/10/04 00:55:24;;;;;;;374.60;249.13;;;;;22.80;97387.00;;;;5081703;28;20205;-83
2023/10/04 00:58:17;;;;;;;383.20;265.33;;;;;22.40;97390.00;;;;5082044;28;20203;-84
2023/10/04 01:01:06;;;;;;;369.90;240.87;;;;;23.30;97418.00;;;;5087633;28;20199;-87
2023/10/04 01:03:55;;;;;;;374.83;252.03;;;;;23.20;97408.00;;;;5089230;28;20679;-88
2023/10/04 01:06:45;;;;;;;380.50;260.67;;;;;22.40;97409.00;;;;5087511;28;20700;-86
2023/10/04 01:09:34;;;;;;;387.33;261.73;;;;;23.10;97419.00;;;;5087682;28;20207;-85
2023/10/04 01:12:24;;;;;;;375.63;251.60;;;;;22.90;97441.00;;;;5083574;28;20716;-84
2023/10/04 01:18:23;;;;;;;369.37;235.57;;;;;23.10;97444.00;;;;5083539;28;20585;-84
2023/10/04 01:21:14;;;;;;;363.63;225.20;;;;;23.00;97451.00;;;;5084505;28;20234;-84
2023/10/04 01:24:08;;;;;;;340.37;191.57;;;;;23.00;97442.00;;;;5083134;28;20227;-85
2023/10/04 01:26:58;;;;;;;353.93;192.00;;;;;22.80;97462.00;;;;5081593;28;20203;-88
2023/10/04 01:29:47;;;;;;;365.60;224.40;;;;;22.50;97476.00;;;;5083089;28;20196;-86
2023/10/04 01:32:36;;;;;;;343.00;178.43;;;;;22.80;97483.00;;;;5086719;28;20564;-85
2023/10/04 01:35:27;;;;;;;336.67;174.40;;;;;22.40;97475.00;;;;5080830;28;20214;-85
2023/10/04 01:38:16;;;;;;;335.87;171.63;;;;;22.60;97504.00;;;;5088958;28;20601;-85
2023/10/04 01:41:07;;;;;;;340.23;181.60;;;;;22.50;97500.00;;;;5084262;28;20200;-85
2023/10/04 01:44:00;;;;;;;355.67;208.63;;;;;22.30;97511.00;;;;5081724;28;20231;-83
2023/10/04 01:46:50;;;;;;;342.63;187.67;;;;;22.50;97499.00;;;;5082427;28;20310;-85
2023/10/04 01:49:39;;;;;;;342.23;174.73;;;;;22.50;97483.00;;;;5078539;28;20192;-84
2023/10/04 01:52:29;;;;;;;342.07;175.60;;;;;22.30;97499.00;;;;5080883;28;20219;-84
2023/10/04 01:55:18;;;;;;;338.47;171.83;;;;;22.10;97484.00;;;;5081278;27;20200;-87
2023/10/04 01:58:10;;;;;;;337.33;166.50;;;;;21.90;97495.00;;;;5078189;28;20208;-85
2023/10/04 02:01:00;;;;;;;335.03;154.63;;;;;21.50;97491.00;;;;5079077;28;20249;-86
2023/10/04 02:03:50;;;;;;;337.10;171.03;;;;;21.40;97467.00;;;;5081184;28;20227;-87
2023/10/04 02:06:39;;;;;;;347.90;180.30;;;;;21.20;97483.00;;;;5077421;28;20531;-84
2023/10/04 02:09:28;;;;;;;341.87;170.37;;;;;21.10;97475.00;;;;5078827;28;20222;-84
2023/10/04 02:12:18;;;;;;;331.23;151.03;;;;;21.30;97457.00;;;;5078434;28;20218;-86
2023/10/04 02:15:14;;;;;;;344.70;162.77;;;;;21.00;97455.00;;;;5080566;28;20268;-83
2023/10/04 02:18:04;;;;;;;340.23;156.37;;;;;20.60;97470.00;;;;5079266;28;20196;-84
2023/10/04 02:20:53;;;;;;;337.33;161.50;;;;;20.80;97467.00;;;;5075934;28;20275;-83
2023/10/04 02:23:43;;;;;;;349.87;173.07;;;;;20.70;97461.00;;;;5078734;28;20224;-85
2023/10/04 02:26:35;;;;;;;350.10;164.87;;;;;20.50;97479.00;;;;5081158;28;20230;-85
2023/10/04 02:29:26;;;;;;;345.03;169.33;;;;;20.30;97472.00;;;;5080139;28;20202;-82
2023/10/04 02:32:17;;;;;;;345.33;156.83;;;;;20.50;97464.00;;;;5080299;28;20682;-84
2023/10/04 02:35:07;;;;;;;343.10;152.27;;;;;20.70;97446.00;;;;5079677;28;20208;-85
2023/10/04 02:38:00;;;;;;;342.73;155.80;;;;;20.20;97451.00;;;;5083939;28;20213;-85
2023/10/04 02:41:00;;;;;;;340.47;151.83;;;;;19.30;97460.00;;;;5080604;28;20405;-87
2023/10/04 02:43:49;;;;;;;338.83;145.53;;;;;18.70;97457.00;;;;5083521;28;20219;-80
2023/10/04 02:46:41;;;;;;;346.73;144.97;;;;;18.90;97443.00;;;;5098309;28;20202;-88
2023/10/04 02:49:40;;;;;;;344.20;134.27;;;;;18.80;97447.00;;;;5105230;28;20199;-92
2023/10/04 02:52:35;;;;;;;368.93;171.87;;;;;19.00;97448.00;;;;5088086;28;20226;-89
2023/10/04 02:55:31;;;;;;;337.90;131.07;;;;;18.60;97436.00;;;;5080507;28;20217;-89
2023/10/04 02:58:20;;;;;;;355.77;159.40;;;;;18.60;97426.00;;;;5086414;28;20209;-85
2023/10/04 03:01:12;;;;;;;337.37;131.13;;;;;18.90;97452.00;;;;5078273;28;20505;-87
2023/10/04 03:04:08;;;;;;;330.27;119.67;;;;;18.50;97468.00;;;;5075853;28;20224;-85
2023/10/04 03:06:58;;;;;;;364.43;165.10;;;;;18.30;97481.00;;;;5078665;28;20691;-86
2023/10/04 03:09:48;;;;;;;331.80;119.87;;;;;18.60;97483.00;;;;5080890;28;20196;-86
2023/10/04 03:12:40;;;;;;;340.00;129.23;;;;;18.70;97471.00;;;;5079627;28;20219;-87
2023/10/04 03:15:32;;;;;;;339.73;127.17;;;;;19.30;97487.00;;;;5085832;28;20203;-87
2023/10/04 03:18:25;;;;;;;341.13;143.60;;;;;18.90;97466.00;;;;5078345;28;20231;-85
2023/10/04 03:21:20;;;;;;;344.87;137.13;;;;;19.00;97475.00;;;;5084899;28;20267;-86
2023/10/04 03:24:12;;;;;;;374.10;178.73;;;;;19.20;97473.00;;;;5082748;28;20231;-87
2023/10/04 03:27:05;;;;;;;358.00;154.43;;;;;19.40;97474.00;;;;5082640;28;20203;-85
2023/10/04 03:29:57;;;;;;;359.10;161.10;;;;;19.50;97470.00;;;;5076949;28;20207;-86
2023/10/04 03:32:51;;;;;;;354.10;150.80;;;;;19.40;97469.00;;;;5084257;28;20220;-86
2023/10/04 03:35:43;;;;;;;365.10;167.53;;;;;19.30;97469.00;;;;5077452;28;20672;-86
2023/10/04 03:38:33;;;;;;;371.93;176.87;;;;;19.60;97464.00;;;;5084896;28;20199;-84
2023/10/04 03:41:24;;;;;;;355.47;157.93;;;;;19.40;97454.00;;;;5081126;28;20199;-83
2023/10/04 03:44:13;;;;;;;364.73;166.83;;;;;19.40;97458.00;;;;5078741;28;20226;-86
2023/10/04 03:47:03;;;;;;;366.23;169.70;;;;;19.70;97456.00;;;;5078722;28;20695;-87
2023/10/04 03:49:52;;;;;;;358.90;163.63;;;;;19.60;97458.00;;;;5096441;28;20902;-90
2023/10/04 03:52:42;;;;;;;362.03;170.30;;;;;19.40;97454.00;;;;5089409;28;20219;-86
2023/10/04 03:55:31;;;;;;;371.30;175.87;;;;;19.70;97448.00;;;;5080583;28;20240;-87
2023/10/04 03:58:22;;;;;;;361.13;181.90;;;;;19.90;97449.00;;;;5086889;28;20230;-88
2023/10/04 04:01:14;;;;;;;361.43;172.80;;;;;19.80;97458.00;;;;5088640;28;20250;-88
2023/10/04 04:04:14;;;;;;;355.53;153.83;;;;;19.80;97469.00;;;;5096421;28;20235;-90
2023/10/04 04:07:04;;;;;;;369.23;181.50;;;;;19.60;97477.00;;;;5084744;28;20204;-89
2023/10/04 04:09:53;;;;;;;357.73;166.80;;;;;19.00;97491.00;;;;5084895;28;20207;-85
2023/10/04 04:12:42;;;;;;;365.00;177.03;;;;;19.80;97505.00;;;;5079492;28;20220;-88
2023/10/04 04:15:34;;;;;;;360.07;160.07;;;;;19.90;97531.00;;;;5084412;28;20222;-88
2023/10/04 04:18:24;;;;;;;344.57;159.63;;;;;20.00;97517.00;;;;5092521;28;20232;-86
2023/10/04 04:21:13;;;;;;;336.37;141.07;;;;;19.80;97530.00;;;;5086756;28;20592;-86
2023/10/04 04:24:09;;;;;;;354.93;159.17;;;;;19.90;97526.00;;;;5088257;28;20227;-86
2023/10/04 04:27:00;;;;;;;351.80;164.83;;;;;19.90;97522.00;;;;5086437;28;20585;-87
2023/10/04 04:29:52;;;;;;;339.13;149.00;;;;;19.80;97539.00;;;;5088215;28;20200;-87
2023/10/04 04:32:44;;;;;;;356.40;150.53;;;;;19.70;97537.00;;;;5088211;28;20216;-86
2023/10/04 04:35:47;;;;;;;346.73;148.47;;;;;19.50;97546.00;;;;5085879;27;20195;-87
2023/10/04 04:38:38;;;;;;;346.23;151.00;;;;;19.40;97547.00;;;;5099700;28;20217;-87
2023/10/04 04:41:29;;;;;;;340.53;146.93;;;;;19.20;97551.00;;;;5087864;28;20203;-88
2023/10/04 04:44:30;;;;;;;349.87;150.33;;;;;19.00;97567.00;;;;5093768;28;20223;-86
2023/10/04 04:47:22;;;;;;;345.07;144.47;;;;;19.00;97565.00;;;;5098631;28;20195;-87
2023/10/04 04:50:15;;;;;;;353.43;148.00;;;;;19.00;97561.00;;;;5099770;28;20206;-88
2023/10/04 04:53:08;;;;;;;343.77;135.87;;;;;18.90;97568.00;;;;5085912;28;20605;-86
2023/10/04 04:55:57;;;;;;;351.70;148.47;;;;;18.80;97576.00;;;;5090063;28;20216;-88
2023/10/04 04:58:47;;;;;;;359.27;153.40;;;;;18.90;97569.00;;;;5089485;28;20211;-87
2023/10/04 05:01:39;;;;;;;345.07;135.90;;;;;18.70;97577.00;;;;5095943;28;20203;-87
2023/10/04 05:04:28;;;;;;;350.03;144.07;;;;;18.70;97587.00;;;;5098340;28;20220;-87
2023/10/04 05:07:18;;;;;;;348.03;141.17;;;;;18.50;97600.00;;;;5091696;28;20226;-87
2023/10/04 05:10:10;;;;;;;347.67;141.27;;;;;18.40;97605.00;;;;5090538;28;20207;-88
2023/10/04 05:13:00;;;;;;;343.60;131.03;;;;;18.40;97611.00;;;;5095093;28;20227;-88
2023/10/04 05:15:50;;;;;;;340.17;130.97;;;;;18.40;97612.00;;;;5088384;28;20195;-88
2023/10/04 05:18:39;;;;;;;346.03;128.63;;;;;18.20;97615.00;;;;5100074;28;20210;-86
2023/10/04 05:21:30;;;;;;;341.00;128.13;;;;;18.30;97611.00;;;;5088733;28;20195;-85
2023/10/04 05:24:21;;;;;;;346.77;134.60;;;;;18.00;97623.00;;;;5090497;28;20218;-87
2023/10/04 05:27:10;;;;;;;360.70;151.57;;;;;17.80;97626.00;;;;5080752;28;20200;-88
2023/10/04 05:29:59;;;;;;;341.20;131.23;;;;;17.60;97623.00;;;;5088787;28;20202;-86
2023/10/04 05:32:48;;;;;;;337.40;119.73;;;;;17.10;97631.00;;;;5084587;28;20219;-86
2023/10/04 05:35:37;;;;;;;348.07;125.87;;;;;16.70;97633.00;;;;5080627;28;20195;-88
2023/10/04 05:38:28;;;;;;;347.80;129.17;;;;;16.80;97645.00;;;;5088861;28;20218;-83
2023/10/04 05:41:20;;;;;;;344.00;121.30;;;;;16.90;97647.00;;;;5086096;28;20199;-87
2023/10/04 05:44:09;;;;;;;345.60;126.53;;;;;17.60;97663.00;;;;5089821;28;20216;-86
2023/10/04 05:46:58;;;;;;;344.17;119.10;;;;;17.60;97668.00;;;;5086892;28;20207;-84
2023/10/04 05:49:48;;;;;;;347.60;123.80;;;;;17.60;97670.00;;;;5082251;28;20668;-85
2023/10/04 05:52:37;;;;;;;349.60;121.60;;;;;16.70;97682.00;;;;5098206;28;20229;-88
2023/10/04 05:55:26;;;;;;;338.20;116.93;;;;;16.50;97687.00;;;;5084592;28;20219;-87
2023/10/04 05:58:18;;;;;;;344.17;124.07;;;;;16.10;97702.00;;;;5086949;28;20203;-84
2023/10/04 06:01:09;;;;;;;339.47;117.67;;;;;16.50;97699.00;;;;5101526;28;20203;-86
2023/10/04 06:03:59;;;;;;;337.43;113.10;;;;;17.10;97714.00;;;;5091820;28;20223;-84
2023/10/04 06:06:48;;;;;;;343.00;121.50;;;;;17.30;97715.00;;;;5091106;28;20196;-85
2023/10/04 06:09:42;;;;;;;356.40;128.93;;;;;17.50;97728.00;;;;5084485;28;20207;-86
2023/10/04 06:12:31;;;;;;;335.13;117.60;;;;;17.10;97728.00;;;;5086961;28;20195;-84
2023/10/04 06:15:24;;;;;;;337.57;116.20;;;;;17.00;97731.00;;;;5087181;28;20211;-87
2023/10/04 06:18:14;;;;;;;341.10;116.87;;;;;16.80;97728.00;;;;5086602;28;20576;-88
2023/10/04 06:21:06;;;;;;;339.07;122.33;;;;;16.90;97737.00;;;;5091786;28;20211;-83
2023/10/04 06:23:55;;;;;;;341.57;122.13;;;;;16.90;97742.00;;;;5090926;28;20222;-86
2023/10/04 06:26:44;;;;;;;342.37;116.17;;;;;17.10;97741.00;;;;5084530;28;20207;-84
2023/10/04 06:29:33;;;;;;;349.33;125.00;;;;;16.80;97747.00;;;;5085850;28;20196;-85
2023/10/04 06:32:24;;;;;;;337.10;109.20;;;;;17.00;97753.00;;;;5087347;28;20211;-87
2023/10/04 06:35:13;;;;;;;337.70;110.83;;;;;16.80;97755.00;;;;5087691;28;20618;-86
2023/10/04 06:38:05;;;;;;;330.37;104.17;;;;;16.80;97761.00;;;;5084771;28;20211;-84
2023/10/04 06:40:55;;;;;;;334.43;110.00;;;;;16.50;97760.00;;;;5084161;28;20203;-87
2023/10/04 06:43:45;;;;;;;339.63;111.03;;;;;16.90;97768.00;;;;5077615;28;20727;-85
2023/10/04 06:46:35;;;;;;;342.63;115.27;;;;;16.30;97765.00;;;;5086884;28;20204;-83
2023/10/04 06:49:25;;;;;;;336.60;114.83;;;;;17.00;97771.00;;;;5084586;28;20207;-83
2023/10/04 06:52:15;;;;;;;335.03;109.23;;;;;17.40;97771.00;;;;5089208;28;20727;-85
2023/10/04 06:55:08;;;;;;;336.70;110.27;;;;;17.40;97775.00;;;;5090855;28;20584;-82
2023/10/04 06:57:57;;;;;;;347.57;122.07;;;;;17.70;97790.00;;;;5088019;28;20210;-84
2023/10/04 07:00:46;;;;;;;352.57;130.13;;;;;18.00;97793.00;;;;5082364;28;20208;-85
2023/10/04 07:03:35;;;;;;;352.63;126.00;;;;;18.10;97795.00;;;;5079587;28;20219;-85
2023/10/04 07:06:26;;;;;;;337.93;115.17;;;;;18.60;97799.00;;;;5076391;28;20235;-87
2023/10/04 07:09:15;;;;;;;337.67;116.47;;;;;18.60;97808.00;;;;5074196;28;20210;-84
2023/10/04 07:12:05;;;;;;;353.73;133.43;;;;;18.90;97813.00;;;;5072097;28;20200;-86
2023/10/04 07:14:54;;;;;;;353.27;130.23;;;;;19.20;97821.00;;;;5073681;28;20227;-86
2023/10/04 07:17:43;;;;;;;346.77;132.97;;;;;19.30;97816.00;;;;5073653;28;20625;-86
2023/10/04 07:20:33;;;;;;;353.20;138.20;;;;;19.30;97811.00;;;;5072649;28;20242;-87
2023/10/04 07:23:24;;;;;;;346.90;131.00;;;;;18.90;97818.00;;;;5075620;28;20219;-87
2023/10/04 07:26:20;;;;;;;349.10;138.53;;;;;19.00;97812.00;;;;5073397;28;20218;-88
2023/10/04 07:29:09;;;;;;;350.70;149.33;;;;;19.10;97825.00;;;;5072948;28;20214;-88
2023/10/04 07:31:58;;;;;;;345.77;138.67;;;;;19.00;97824.00;;;;5079027;28;20211;-87
2023/10/04 07:34:48;;;;;;;361.37;145.03;;;;;19.20;97844.00;;;;5072488;28;20232;-86
2023/10/04 07:37:37;;;;;;;357.47;148.20;;;;;19.40;97841.00;;;;5079817;28;20216;-85
2023/10/04 07:40:30;;;;;;;349.10;136.40;;;;;19.50;97829.00;;;;5075406;28;20222;-86
2023/10/04 07:43:19;;;;;;;354.90;144.07;;;;;20.00;97844.00;;;;5075406;28;20229;-87
2023/10/04 07:46:08;;;;;;;350.00;139.77;;;;;20.20;97844.00;;;;5073497;28;20203;-86
2023/10/04 07:48:59;;;;;;;336.03;126.17;;;;;20.40;97846.00;;;;5079059;28;20288;-84
2023/10/04 07:51:48;;;;;;;352.73;143.17;;;;;20.30;97844.00;;;;5079410;28;20269;-87
2023/10/04 07:54:38;;;;;;;351.70;143.43;;;;;20.10;97852.00;;;;5073559;28;20767;-87
2023/10/04 07:57:28;;;;;;;342.47;140.43;;;;;20.30;97844.00;;;;5074777;28;20692;-86
2023/10/04 08:00:18;;;;;;;342.37;145.60;;;;;20.60;97854.00;;;;5073569;28;20833;-84
2023/10/04 08:03:09;;;;;;;348.37;149.37;;;;;21.10;97856.00;;;;5077081;28;20224;-87
2023/10/04 08:05:59;;;;;;;332.93;130.50;;;;;21.40;97862.00;;;;5084193;28;20203;-87
2023/10/04 08:08:48;;;;;;;344.37;145.33;;;;;21.20;97863.00;;;;5078658;28;20204;-87
2023/10/04 08:11:38;;;;;;;340.93;147.37;;;;;21.60;97864.00;;;;5093119;28;20208;-86
2023/10/04 08:14:30;;;;;;;340.93;149.77;;;;;21.80;97862.00;;;;5103360;28;20711;-87
2023/10/04 08:17:20;;;;;;;340.07;153.80;;;;;22.10;97870.00;;;;5094509;28;20269;-85
2023/10/04 08:20:13;;;;;;;336.53;151.53;;;;;22.30;97867.00;;;;5081789;28;20200;-87
2023/10/04 08:23:03;;;;;;;346.70;172.33;;;;;21.50;97862.00;;;;5105952;28;20221;-86
2023/10/04 08:25:52;;;;;;;337.10;167.87;;;;;22.40;97869.00;;;;5105567;28;20219;-87
2023/10/04 08:28:42;;;;;;;348.43;166.97;;;;;22.30;97871.00;;;;5086261;28;20214;-87
2023/10/04 08:31:33;;;;;;;346.40;176.73;;;;;22.80;97871.00;;;;5086510;28;20668;-87
2023/10/04 08:34:24;;;;;;;340.57;171.77;;;;;22.90;97882.00;;;;5091239;28;20210;-87
2023/10/04 08:37:13;;;;;;;362.33;187.23;;;;;23.00;97881.00;;;;5083931;28;20211;-87
2023/10/04 08:40:03;;;;;;;350.20;189.57;;;;;23.00;97888.00;;;;5082826;28;20211;-87
2023/10/04 08:42:53;;;;;;;352.07;192.53;;;;;22.80;97888.00;;;;5076626;28;20237;-86
2023/10/04 08:45:43;;;;;;;361.77;197.40;;;;;23.10;97883.00;;;;5079035;28;20704;-87
2023/10/04 08:48:34;;;;;;;346.53;189.57;;;;;23.30;97892.00;;;;5075085;28;20223;-87
2023/10/04 08:51:30;;;;;;;342.77;185.53;;;;;23.20;97891.00;;;;5079768;28;20203;-88
2023/10/04 08:54:23;;;;;;;347.00;186.27;;;;;23.10;97896.00;;;;5077989;28;20250;-88
2023/10/04 08:57:14;;;;;;;356.37;210.50;;;;;23.10;97895.00;;;;5076558;28;20236;-86
2023/10/04 09:00:10;;;;;;;343.87;184.53;;;;;23.50;97890.00;;;;5078286;28;20230;-87
2023/10/04 09:03:07;;;;;;;345.93;194.57;;;;;23.50;97891.00;;;;5082569;28;20260;-86
2023/10/04 09:06:00;;;;;;;343.13;188.87;;;;;23.90;97876.00;;;;5081251;28;20203;-87
2023/10/04 09:08:50;;;;;;;368.93;216.40;;;;;24.00;97870.00;;;;5077742;28;20196;-85
2023/10/04 09:11:39;;;;;;;349.27;183.13;;;;;23.50;97883.00;;;;5073773;28;20211;-86
2023/10/04 09:14:28;;;;;;;368.33;208.83;;;;;23.70;97891.00;;;;5078744;28;20232;-86
2023/10/04 09:17:19;;;;;;;349.30;203.20;;;;;24.20;97881.00;;;;5073235;28;20671;-86
2023/10/04 09:20:15;;;;;;;352.23;206.17;;;;;24.40;97882.00;;;;5085484;28;20225;-86
2023/10/04 09:23:19;;;;;;;341.67;188.23;;;;;24.60;97889.00;;;;5083905;28;20826;-87
2023/10/04 09:26:16;;;;;;;346.13;186.03;;;;;24.60;97893.00;;;;5087663;28;20208;-87
2023/10/04 09:29:06;;;;;;;347.77;194.23;;;;;24.50;97893.00;;;;5076454;28;20228;-86
2023/10/04 09:31:55;;;;;;;344.07;199.83;;;;;24.60;97906.00;;;;5077850;28;20219;-87
2023/10/04 09:34:57;;;;;;;350.23;197.00;;;;;24.20;97907.00;;;;5076489;28;20223;-87
2023/10/04 09:37:47;;;;;;;347.93;199.83;;;;;24.30;97909.00;;;;5073255;28;20208;-87
2023/10/04 09:40:37;;;;;;;340.67;184.00;;;;;24.30;97909.00;;;;5096527;28;20205;-86
2023/10/04 09:43:36;;;;;;;345.90;205.30;;;;;24.30;97919.00;;;;5096196;28;20786;-86
2023/10/04 09:46:25;;;;;;;338.70;184.07;;;;;24.10;97930.00;;;;5087546;28;20560;-86
2023/10/04 09:49:17;;;;;;;337.27;198.93;;;;;23.90;97930.00;;;;5100107;28;20200;-85
2023/10/04 09:52:11;;;;;;;344.07;208.53;;;;;23.80;97935.00;;;;5093552;28;20210;-86
2023/10/04 09:55:00;;;;;;;340.00;185.60;;;;;23.60;97917.00;;;;5089305;28;20223;-86
2023/10/04 09:57:53;;;;;;;337.07;193.07;;;;;23.30;97927.00;;;;5085002;28;20715;-85
2023/10/04 10:00:43;;;;;;;338.37;178.27;;;;;23.50;97919.00;;;;5083899;28;20221;-85
2023/10/04 10:03:47;;;;;;;332.07;176.77;;;;;23.20;97917.00;;;;5091993;28;20684;-85
2023/10/04 10:06:50;;;;;;;338.93;175.60;;;;;23.30;97907.00;;;;5087538;28;20783;-86
2023/10/04 10:09:51;;;;;;;346.70;194.73;;;;;23.50;97904.00;;;;5093307;28;20203;-86
2023/10/04 10:12:49;;;;;;;342.63;177.90;;;;;23.50;97918.00;;;;5099323;28;20199;-85
2023/10/04 10:15:40;;;;;;;348.43;207.27;;;;;23.40;97911.00;;;;5087372;28;20287;-87
2023/10/04 10:18:31;;;;;;;341.83;198.43;;;;;23.40;97922.00;;;;5084871;28;20233;-86
2023/10/04 10:21:20;;;;;;;335.77;191.40;;;;;22.80;97920.00;;;;5096674;28;20328;-86
2023/10/04 10:24:16;;;;;;;333.50;183.43;;;;;23.10;97925.00;;;;5095042;28;20743;-85
2023/10/04 10:27:09;;;;;;;350.40;197.77;;;;;23.30;97935.00;;;;5098290;28;20590;-85
2023/10/04 10:30:00;;;;;;;336.70;181.93;;;;;23.20;97928.00;;;;5080543;28;20211;-83
2023/10/04 10:32:56;;;;;;;342.87;181.70;;;;;23.20;97936.00;;;;5075403;28;20214;-85
2023/10/04 10:35:52;;;;;;;341.33;181.60;;;;;23.40;97938.00;;;;5087035;28;20222;-84
2023/10/04 10:38:48;;;;;;;343.37;188.87;;;;;23.40;97941.00;;;;5088382;28;20199;-85
2023/10/04 10:41:55;;;;;;;337.03;176.93;;;;;23.40;97942.00;;;;5087939;28;20203;-86
2023/10/04 10:44:45;;;;;;;344.20;187.13;;;;;23.30;97948.00;;;;5079924;28;20241;-86
2023/10/04 10:47:34;;;;;;;334.60;170.60;;;;;23.30;97952.00;;;;5083598;28;20574;-84
2023/10/04 10:50:37;;;;;;;333.93;174.10;;;;;23.50;97950.00;;;;5095469;28;20233;-86
2023/10/04 10:53:26;;;;;;;332.43;168.60;;;;;23.50;97947.00;;;;5087937;28;20714;-84
2023/10/04 10:56:15;;;;;;;333.57;169.53;;;;;23.40;97955.00;;;;5094295;28;20219;-86
2023/10/04 10:59:05;;;;;;;330.73;175.77;;;;;23.10;97954.00;;;;5091607;28;20203;-84
2023/10/04 11:01:55;;;;;;;330.13;169.10;;;;;22.90;97965.00;;;;5090232;28;20195;-85
2023/10/04 11:04:44;;;;;;;343.17;182.87;;;;;23.00;97952.00;;;;5088960;28;20264;-86
2023/10/04 11:07:36;;;;;;;331.17;167.83;;;;;23.00;97948.00;;;;5092514;28;20215;-85
2023/10/04 11:10:26;;;;;;;331.53;171.97;;;;;22.90;97945.00;;;;5094756;28;20218;-85
2023/10/04 11:13:18;;;;;;;335.87;172.83;;;;;23.00;97939.00;;;;5095522;28;20398;-84
2023/10/04 11:16:08;;;;;;;336.03;177.30;;;;;22.80;97937.00;;;;5093228;28;20240;-85
2023/10/04 11:18:59;;;;;;;337.63;180.50;;;;;22.50;97946.00;;;;5107105;28;20203;-83
2023/10/04 11:21:49;;;;;;;335.17;163.40;;;;;22.30;97941.00;;;;5100800;28;20199;-83
2023/10/04 11:24:40;;;;;;;340.77;167.07;;;;;22.10;97948.00;;;;5097935;28;20712;-84
2023/10/04 11:27:29;;;;;;;330.73;158.73;;;;;21.90;97950.00;;;;5093614;28;20187;-86
2023/10/04 11:30:23;;;;;;;327.10;150.27;;;;;22.00;97941.00;;;;5095785;28;21074;-86
2023/10/04 11:33:15;;;;;;;330.97;158.00;;;;;22.00;97939.00;;;;5101108;28;20284;-83
2023/10/04 11:36:04;;;;;;;331.73;154.33;;;;;22.00;97950.00;;;;5093471;28;20326;-85
2023/10/04 11:38:54;;;;;;;345.43;168.80;;;;;21.90;97943.00;;;;5091238;28;20215;-86
2023/10/04 11:41:47;;;;;;;338.23;157.57;;;;;21.90;97941.00;;;;5093887;28;20203;-85
2023/10/04 11:44:37;;;;;;;336.70;148.93;;;;;22.00;97931.00;;;;5092949;28;20230;-84
2023/10/04 11:47:31;;;;;;;330.63;152.90;;;;;22.10;97934.00;;;;5100826;28;20592;-83
2023/10/04 11:50:23;;;;;;;329.73;143.43;;;;;22.00;97934.00;;;;5096372;28;20214;-85
2023/10/04 11:53:12;;;;;;;333.30;149.87;;;;;22.20;97934.00;;;;5087011;28;20228;-85
2023/10/04 11:56:06;;;;;;;331.30;153.00;;;;;22.20;97934.00;;;;5083513;28;20565;-84
2023/10/04 11:58:57;;;;;;;327.27;145.43;;;;;21.80;97941.00;;;;5086935;28;20207;-85
2023/10/04 12:01:46;;;;;;;339.43;165.03;;;;;21.80;97950.00;;;;5084315;28;20196;-87
2023/10/04 12:04:37;;;;;;;335.57;158.27;;;;;21.50;97960.00;;;;5081621;28;20684;-85
2023/10/04 12:07:29;;;;;;;332.13;154.23;;;;;21.60;97970.00;;;;5085617;28;20682;-85
2023/10/04 12:10:19;;;;;;;335.53;162.90;;;;;21.30;97976.00;;;;5085249;28;20200;-87
2023/10/04 12:13:08;;;;;;;335.27;159.87;;;;;20.70;97967.00;;;;5084223;28;20223;-85
2023/10/04 12:16:00;;;;;;;375.43;181.60;;;;;20.80;97972.00;;;;5087168;28;20595;-86
2023/10/04 12:18:49;;;;;;;339.53;151.67;;;;;20.60;97973.00;;;;5078625;28;20215;-87
2023/10/04 12:21:38;;;;;;;343.97;158.37;;;;;20.80;97960.00;;;;5083432;28;20671;-86
2023/10/04 12:24:30;;;;;;;342.13;145.20;;;;;20.90;97957.00;;;;5078322;28;20607;-85
2023/10/04 12:27:23;;;;;;;341.10;150.93;;;;;20.20;97944.00;;;;5078260;28;20207;-84
2023/10/04 12:30:14;;;;;;;346.13;155.33;;;;;20.00;97924.00;;;;5076450;28;20272;-84
2023/10/04 12:33:05;;;;;;;338.13;143.93;;;;;20.10;97908.00;;;;5081432;28;20241;-85
2023/10/04 12:35:55;;;;;;;331.70;134.77;;;;;20.50;97898.00;;;;5075832;28;21653;-86
2023/10/04 12:38:44;;;;;;;342.37;136.87;;;;;20.60;97915.00;;;;5081094;28;20241;-86
2023/10/04 12:41:37;;;;;;;329.27;138.33;;;;;20.60;97921.00;;;;5080415;28;20203;-86
2023/10/04 12:44:26;;;;;;;338.90;131.03;;;;;20.90;97918.00;;;;5078550;28;20322;-86
2023/10/04 12:47:16;;;;;;;380.47;209.97;;;;;20.80;97911.00;;;;5082923;28;20199;-86
2023/10/04 12:50:09;;;;;;;386.00;217.83;;;;;21.10;97907.00;;;;5080109;28;20200;-86
2023/10/04 12:52:58;;;;;;;378.83;218.47;;;;;21.60;97912.00;;;;5088105;28;20211;-88
2023/10/04 12:55:50;;;;;;;384.10;218.53;;;;;21.30;97933.00;;;;5090245;28;20214;-88
2023/10/04 12:58:45;;;;;;;390.67;234.87;;;;;20.80;97930.00;;;;5089938;28;20208;-88
2023/10/04 13:01:37;;;;;;;384.70;224.47;;;;;20.40;97937.00;;;;5084536;28;20943;-86
2023/10/04 13:04:29;;;;;;;385.57;227.63;;;;;20.30;97931.00;;;;5088944;28;20223;-87
2023/10/04 13:07:23;;;;;;;373.57;207.40;;;;;20.20;97931.00;;;;5089273;28;20204;-88
2023/10/04 13:10:17;;;;;;;382.77;215.90;;;;;20.80;97925.00;;;;5087582;28;20787;-88
2023/10/04 13:13:12;;;;;;;376.40;215.07;;;;;20.90;97930.00;;;;5088045;28;20223;-88
2023/10/04 13:16:03;;;;;;;375.50;212.57;;;;;21.20;97923.00;;;;5089583;28;20206;-86
2023/10/04 13:18:54;;;;;;;385.17;225.83;;;;;21.50;97920.00;;;;5093241;28;20210;-88
2023/10/04 13:21:44;;;;;;;377.00;218.83;;;;;21.60;97916.00;;;;5092075;28;20215;-88
2023/10/04 13:24:37;;;;;;;381.17;221.83;;;;;21.70;97917.00;;;;5090741;28;20229;-88
2023/10/04 13:27:26;;;;;;;382.47;223.17;;;;;21.70;97909.00;;;;5090781;28;20224;-86
2023/10/04 13:30:15;;;;;;;390.00;227.83;;;;;21.30;97903.00;;;;5084264;28;20203;-88
2023/10/04 13:33:05;;;;;;;399.47;236.50;;;;;20.20;97895.00;;;;5081272;28;20227;-84
2023/10/04 13:35:54;;;;;;;386.27;208.10;;;;;20.10;97891.00;;;;5082213;28;20216;-86
2023/10/04 13:38:43;;;;;;;380.60;203.17;;;;;20.30;97874.00;;;;5081491;28;20243;-85